sensor_id;sensor_type;location;lat;lon;timestamp;pressure;altitude;pressure_sealevel;temperature;humidity
66196;BME280;53000;45.182;5.736;2022-10-16T00:00:41;99285.84;;;19.06;59.56
66196;BME280;53000;45.182;5.736;2022-10-16T00:03:08;99278.28;;;19.02;60.06
66196;BME280;53000;45.182;5.736;2022-10-16T00:05:38;99271.56;;;18.97;59.78
66196;BME280;53000;45.182;5.736;2022-10-16T00:08:11;99278.56;;;18.93;60.29
66196;BME280;53000;45.182;5.736;2022-10-16T00:10:39;99273.53;;;18.90;59.94
66196;BME280;53000;45.182;5.736;2022-10-16T00:13:07;99282.44;;;18.86;60.07
66196;BME280;53000;45.182;5.736;2022-10-16T00:15:34;99279.09;;;18.84;60.68
66196;BME280;53000;45.182;5.736;2022-10-16T00:18:07;99285.63;;;18.83;60.54
66196;BME280;53000;45.182;5.736;2022-10-16T00:20:35;99274.91;;;18.81;60.45
66196;BME280;53000;45.182;5.736;2022-10-16T00:23:03;99283.34;;;18.79;60.60
66196;BME280;53000;45.182;5.736;2022-10-16T00:25:29;99282.25;;;18.80;60.74
66196;BME280;53000;45.182;5.736;2022-10-16T00:28:02;99285.88;;;18.81;60.24
66196;BME280;53000;45.182;5.736;2022-10-16T00:30:32;99278.69;;;18.80;60.86
66196;BME280;53000;45.182;5.736;2022-10-16T00:33:02;99281.63;;;18.78;60.73
66196;BME280;53000;45.182;5.736;2022-10-16T00:35:27;99286.91;;;18.80;60.50
66196;BME280;53000;45.182;5.736;2022-10-16T00:37:56;99284.78;;;18.82;60.81
66196;BME280;53000;45.182;5.736;2022-10-16T00:40:24;99284.16;;;18.80;61.00
66196;BME280;53000;45.182;5.736;2022-10-16T00:42:49;99285.25;;;18.79;61.09
66196;BME280;53000;45.182;5.736;2022-10-16T00:45:15;99276.19;;;18.72;61.29
66196;BME280;53000;45.182;5.736;2022-10-16T00:47:44;99290.28;;;18.75;61.32
66196;BME280;53000;45.182;5.736;2022-10-16T00:50:31;99286.53;;;18.70;60.72
66196;BME280;53000;45.182;5.736;2022-10-16T00:52:58;99295.00;;;18.68;60.50
66196;BME280;53000;45.182;5.736;2022-10-16T00:55:28;99301.75;;;18.66;61.06
66196;BME280;53000;45.182;5.736;2022-10-16T00:57:55;99297.75;;;18.62;61.21
66196;BME280;53000;45.182;5.736;2022-10-16T01:00:26;99302.88;;;18.58;61.63
66196;BME280;53000;45.182;5.736;2022-10-16T01:02:57;99298.88;;;18.54;61.01
66196;BME280;53000;45.182;5.736;2022-10-16T01:05:24;99305.19;;;18.54;61.09
66196;BME280;53000;45.182;5.736;2022-10-16T01:08:12;99302.66;;;18.53;60.70
66196;BME280;53000;45.182;5.736;2022-10-16T01:10:57;99317.00;;;18.55;61.19
66196;BME280;53000;45.182;5.736;2022-10-16T01:13:35;99315.13;;;18.55;60.77
66196;BME280;53000;45.182;5.736;2022-10-16T01:16:07;99313.00;;;18.57;61.18
66196;BME280;53000;45.182;5.736;2022-10-16T01:18:40;99307.50;;;18.57;60.90
66196;BME280;53000;45.182;5.736;2022-10-16T01:21:16;99302.88;;;18.58;60.97
66196;BME280;53000;45.182;5.736;2022-10-16T01:24:08;99303.69;;;18.58;60.57
66196;BME280;53000;45.182;5.736;2022-10-16T01:29:55;99314.50;;;18.53;60.51
66196;BME280;53000;45.182;5.736;2022-10-16T01:35:14;99313.69;;;18.46;60.88
66196;BME280;53000;45.182;5.736;2022-10-16T01:40:26;99317.69;;;18.44;61.01
66196;BME280;53000;45.182;5.736;2022-10-16T01:42:59;99320.66;;;18.42;61.51
66196;BME280;53000;45.182;5.736;2022-10-16T01:45:31;99329.75;;;18.43;61.10
66196;BME280;53000;45.182;5.736;2022-10-16T01:48:00;99322.78;;;18.40;61.76
66196;BME280;53000;45.182;5.736;2022-10-16T01:50:33;99323.44;;;18.35;61.43
66196;BME280;53000;45.182;5.736;2022-10-16T01:53:04;99324.50;;;18.34;61.64
66196;BME280;53000;45.182;5.736;2022-10-16T01:55:39;99328.69;;;18.37;61.24
66196;BME280;53000;45.182;5.736;2022-10-16T01:58:10;99333.72;;;18.40;61.33
66196;BME280;53000;45.182;5.736;2022-10-16T02:00:41;99333.72;;;18.40;61.21
66196;BME280;53000;45.182;5.736;2022-10-16T02:03:08;99329.13;;;18.41;61.27
66196;BME280;53000;45.182;5.736;2022-10-16T02:08:14;99329.50;;;18.44;61.50
66196;BME280;53000;45.182;5.736;2022-10-16T02:10:42;99327.16;;;18.48;61.22
66196;BME280;53000;45.182;5.736;2022-10-16T02:13:17;99325.50;;;18.47;61.31
66196;BME280;53000;45.182;5.736;2022-10-16T02:15:44;99325.88;;;18.50;61.12
66196;BME280;53000;45.182;5.736;2022-10-16T02:18:10;99336.84;;;18.50;61.08
66196;BME280;53000;45.182;5.736;2022-10-16T02:20:46;99329.25;;;18.52;60.99
66196;BME280;53000;45.182;5.736;2022-10-16T02:23:27;99331.16;;;18.52;60.90
66196;BME280;53000;45.182;5.736;2022-10-16T02:25:58;99328.19;;;18.53;60.48
66196;BME280;53000;45.182;5.736;2022-10-16T02:28:33;99329.88;;;18.54;60.67
66196;BME280;53000;45.182;5.736;2022-10-16T02:31:04;99336.63;;;18.52;60.93
66196;BME280;53000;45.182;5.736;2022-10-16T02:33:37;99334.09;;;18.50;61.10
66196;BME280;53000;45.182;5.736;2022-10-16T02:36:11;99340.22;;;18.52;60.65
66196;BME280;53000;45.182;5.736;2022-10-16T02:38:44;99340.41;;;18.51;60.93
66196;BME280;53000;45.182;5.736;2022-10-16T02:41:11;99338.97;;;18.48;60.69
66196;BME280;53000;45.182;5.736;2022-10-16T02:43:36;99332.25;;;18.44;60.38
66196;BME280;53000;45.182;5.736;2022-10-16T02:46:01;99340.69;;;18.43;60.59
66196;BME280;53000;45.182;5.736;2022-10-16T02:48:30;99340.28;;;18.39;60.55
66196;BME280;53000;45.182;5.736;2022-10-16T02:50:55;99334.81;;;18.39;60.96
66196;BME280;53000;45.182;5.736;2022-10-16T02:53:23;99342.63;;;18.35;60.94
66196;BME280;53000;45.182;5.736;2022-10-16T02:55:50;99339.66;;;18.37;60.97
66196;BME280;53000;45.182;5.736;2022-10-16T02:58:16;99344.06;;;18.38;60.79
66196;BME280;53000;45.182;5.736;2022-10-16T03:00:46;99344.31;;;18.36;61.05
66196;BME280;53000;45.182;5.736;2022-10-16T03:03:12;99347.09;;;18.30;61.13
66196;BME280;53000;45.182;5.736;2022-10-16T03:05:39;99347.91;;;18.30;60.66
66196;BME280;53000;45.182;5.736;2022-10-16T03:08:07;99346.47;;;18.28;60.50
66196;BME280;53000;45.182;5.736;2022-10-16T03:10:35;99338.91;;;18.23;60.67
66196;BME280;53000;45.182;5.736;2022-10-16T03:13:03;99340.59;;;18.17;60.55
66196;BME280;53000;45.182;5.736;2022-10-16T03:15:28;99352.00;;;18.08;60.44
66196;BME280;53000;45.182;5.736;2022-10-16T03:17:54;99353.31;;;17.98;60.59
66196;BME280;53000;45.182;5.736;2022-10-16T03:20:20;99343.66;;;17.89;60.71
66196;BME280;53000;45.182;5.736;2022-10-16T03:22:45;99348.31;;;17.82;61.10
66196;BME280;53000;45.182;5.736;2022-10-16T03:25:13;99354.19;;;17.79;61.46
66196;BME280;53000;45.182;5.736;2022-10-16T03:27:41;99352.50;;;17.78;61.15
66196;BME280;53000;45.182;5.736;2022-10-16T03:30:07;99348.28;;;17.75;61.08
66196;BME280;53000;45.182;5.736;2022-10-16T03:32:35;99348.31;;;17.69;60.87
66196;BME280;53000;45.182;5.736;2022-10-16T03:35:03;99342.00;;;17.68;61.24
66196;BME280;53000;45.182;5.736;2022-10-16T03:37:38;99348.50;;;17.67;61.27
66196;BME280;53000;45.182;5.736;2022-10-16T03:40:03;99351.47;;;17.66;61.65
66196;BME280;53000;45.182;5.736;2022-10-16T03:42:31;99347.28;;;17.63;62.07
66196;BME280;53000;45.182;5.736;2022-10-16T03:44:59;99348.53;;;17.61;61.78
66196;BME280;53000;45.182;5.736;2022-10-16T03:47:26;99347.28;;;17.63;62.15
66196;BME280;53000;45.182;5.736;2022-10-16T03:49:59;99355.50;;;17.63;61.84
66196;BME280;53000;45.182;5.736;2022-10-16T03:52:25;99347.50;;;17.62;61.82
66196;BME280;53000;45.182;5.736;2022-10-16T03:54:50;99345.19;;;17.65;61.56
66196;BME280;53000;45.182;5.736;2022-10-16T03:57:16;99355.69;;;17.68;61.70
66196;BME280;53000;45.182;5.736;2022-10-16T03:59:42;99356.53;;;17.69;61.49
66196;BME280;53000;45.182;5.736;2022-10-16T04:02:07;99355.06;;;17.66;61.67
66196;BME280;53000;45.182;5.736;2022-10-16T04:04:40;99348.94;;;17.64;61.30
66196;BME280;53000;45.182;5.736;2022-10-16T04:07:05;99349.19;;;17.56;61.71
66196;BME280;53000;45.182;5.736;2022-10-16T04:09:33;99355.28;;;17.51;61.94
66196;BME280;53000;45.182;5.736;2022-10-16T04:12:08;99354.03;;;17.47;61.70
66196;BME280;53000;45.182;5.736;2022-10-16T04:14:33;99352.38;;;17.46;62.03
66196;BME280;53000;45.182;5.736;2022-10-16T04:17:01;99351.50;;;17.46;61.76
66196;BME280;53000;45.182;5.736;2022-10-16T04:19:31;99349.00;;;17.44;61.70
66196;BME280;53000;45.182;5.736;2022-10-16T04:21:59;99349.84;;;17.38;61.73
66196;BME280;53000;45.182;5.736;2022-10-16T04:24:24;99354.69;;;17.36;62.32
66196;BME280;53000;45.182;5.736;2022-10-16T04:26:49;99342.06;;;17.28;62.62
66196;BME280;53000;45.182;5.736;2022-10-16T04:29:15;99351.31;;;17.27;62.10
66196;BME280;53000;45.182;5.736;2022-10-16T04:31:40;99344.59;;;17.23;62.68
66196;BME280;53000;45.182;5.736;2022-10-16T04:34:06;99344.16;;;17.20;62.69
66196;BME280;53000;45.182;5.736;2022-10-16T04:36:33;99351.97;;;17.23;62.60
66196;BME280;53000;45.182;5.736;2022-10-16T04:38:59;99353.00;;;17.22;62.76
66196;BME280;53000;45.182;5.736;2022-10-16T04:41:26;99361.22;;;17.22;62.63
66196;BME280;53000;45.182;5.736;2022-10-16T04:43:55;99359.31;;;17.22;62.60
66196;BME280;53000;45.182;5.736;2022-10-16T04:46:25;99361.22;;;17.22;63.06
66196;BME280;53000;45.182;5.736;2022-10-16T04:48:53;99358.66;;;17.20;62.81
66196;BME280;53000;45.182;5.736;2022-10-16T04:51:19;99361.41;;;17.20;62.77
66196;BME280;53000;45.182;5.736;2022-10-16T04:53:53;99366.03;;;17.20;62.96
66196;BME280;53000;45.182;5.736;2022-10-16T04:56:21;99368.78;;;17.20;62.67
66196;BME280;53000;45.182;5.736;2022-10-16T04:58:47;99370.69;;;17.19;62.94
66196;BME280;53000;45.182;5.736;2022-10-16T05:01:15;99371.31;;;17.21;62.69
66196;BME280;53000;45.182;5.736;2022-10-16T05:03:41;99372.34;;;17.20;63.17
66196;BME280;53000;45.182;5.736;2022-10-16T05:06:09;99373.41;;;17.19;62.90
66196;BME280;53000;45.182;5.736;2022-10-16T05:08:39;99371.72;;;17.18;63.18
66196;BME280;53000;45.182;5.736;2022-10-16T05:11:09;99372.59;;;17.19;63.05
66196;BME280;53000;45.182;5.736;2022-10-16T05:13:37;99367.75;;;17.21;62.72
66196;BME280;53000;45.182;5.736;2022-10-16T05:16:05;99361.84;;;17.17;62.83
66196;BME280;53000;45.182;5.736;2022-10-16T05:18:33;99368.59;;;17.14;62.69
66196;BME280;53000;45.182;5.736;2022-10-16T05:21:01;99371.72;;;17.11;62.97
66196;BME280;53000;45.182;5.736;2022-10-16T05:23:29;99373.63;;;17.11;62.75
66196;BME280;53000;45.182;5.736;2022-10-16T05:25:58;99373.63;;;17.11;62.97
66196;BME280;53000;45.182;5.736;2022-10-16T05:28:28;99381.19;;;17.09;62.70
66196;BME280;53000;45.182;5.736;2022-10-16T05:30:57;99376.78;;;17.08;62.66
66196;BME280;53000;45.182;5.736;2022-10-16T05:33:24;99379.09;;;17.04;62.78
66196;BME280;53000;45.182;5.736;2022-10-16T05:35:55;99376.97;;;17.00;62.70
66196;BME280;53000;45.182;5.736;2022-10-16T05:38:22;99386.66;;;16.95;63.23
66196;BME280;53000;45.182;5.736;2022-10-16T05:40:53;99384.34;;;16.92;63.27
66196;BME280;53000;45.182;5.736;2022-10-16T05:43:19;99394.84;;;16.95;63.35
66196;BME280;53000;45.182;5.736;2022-10-16T05:45:44;99401.34;;;16.94;63.35
66196;BME280;53000;45.182;5.736;2022-10-16T05:48:18;99399.25;;;16.90;63.24
66196;BME280;53000;45.182;5.736;2022-10-16T05:51:16;99403.47;;;16.92;62.61
66196;BME280;53000;45.182;5.736;2022-10-16T05:53:42;99396.31;;;16.91;63.01
66196;BME280;53000;45.182;5.736;2022-10-16T05:56:10;99404.31;;;16.86;62.91
66196;BME280;53000;45.182;5.736;2022-10-16T05:58:38;99399.88;;;16.85;63.14
66196;BME280;53000;45.182;5.736;2022-10-16T06:01:17;99404.06;;;16.81;63.06
66196;BME280;53000;45.182;5.736;2022-10-16T06:03:43;99401.28;;;16.74;63.52
66196;BME280;53000;45.182;5.736;2022-10-16T06:06:14;99405.06;;;16.67;63.59
66196;BME280;53000;45.182;5.736;2022-10-16T06:08:41;99414.50;;;16.64;63.40
66196;BME280;53000;45.182;5.736;2022-10-16T06:11:13;99416.81;;;16.61;63.32
66196;BME280;53000;45.182;5.736;2022-10-16T06:13:39;99416.19;;;16.59;63.97
66196;BME280;53000;45.182;5.736;2022-10-16T06:16:09;99418.06;;;16.58;63.58
66196;BME280;53000;45.182;5.736;2022-10-16T06:18:38;99432.34;;;16.60;63.80
66196;BME280;53000;45.182;5.736;2022-10-16T06:21:12;99437.81;;;16.60;63.62
66196;BME280;53000;45.182;5.736;2022-10-16T06:23:38;99431.97;;;16.63;63.45
66196;BME280;53000;45.182;5.736;2022-10-16T06:26:09;99431.78;;;16.65;63.54
66196;BME280;53000;45.182;5.736;2022-10-16T06:28:35;99435.13;;;16.67;63.69
66196;BME280;53000;45.182;5.736;2022-10-16T06:31:02;99435.97;;;16.67;63.67
66196;BME280;53000;45.182;5.736;2022-10-16T06:33:28;99440.00;;;16.71;63.35
66196;BME280;53000;45.182;5.736;2022-10-16T06:35:53;99444.38;;;16.72;63.19
66196;BME280;53000;45.182;5.736;2022-10-16T06:38:21;99442.09;;;16.69;62.99
66196;BME280;53000;45.182;5.736;2022-10-16T06:40:46;99446.28;;;16.65;63.16
66196;BME280;53000;45.182;5.736;2022-10-16T06:43:13;99452.75;;;16.64;63.75
66196;BME280;53000;45.182;5.736;2022-10-16T06:45:52;99443.72;;;16.64;63.68
66196;BME280;53000;45.182;5.736;2022-10-16T06:48:20;99451.31;;;16.68;63.70
66196;BME280;53000;45.182;5.736;2022-10-16T06:53:34;99460.59;;;16.74;63.67
66196;BME280;53000;45.182;5.736;2022-10-16T06:56:09;99460.41;;;16.75;63.49
66196;BME280;53000;45.182;5.736;2022-10-16T06:58:35;99471.34;;;16.75;63.40
66196;BME280;53000;45.182;5.736;2022-10-16T07:01:01;99475.53;;;16.78;63.30
66196;BME280;53000;45.182;5.736;2022-10-16T07:03:26;99473.00;;;16.76;64.09
66196;BME280;53000;45.182;5.736;2022-10-16T07:05:51;99475.94;;;16.75;63.57
66196;BME280;53000;45.182;5.736;2022-10-16T07:08:17;99482.25;;;16.75;63.70
66196;BME280;53000;45.182;5.736;2022-10-16T07:10:42;99478.06;;;16.80;63.52
66196;BME280;53000;45.182;5.736;2022-10-16T07:13:08;99489.22;;;16.78;63.06
66196;BME280;53000;45.182;5.736;2022-10-16T07:15:36;99478.44;;;16.70;63.66
66196;BME280;53000;45.182;5.736;2022-10-16T07:18:01;99491.06;;;16.71;63.51
66196;BME280;53000;45.182;5.736;2022-10-16T07:20:29;99489.19;;;16.71;63.55
66196;BME280;53000;45.182;5.736;2022-10-16T07:22:54;99496.78;;;16.76;63.74
66196;BME280;53000;45.182;5.736;2022-10-16T07:25:20;99496.56;;;16.77;63.66
66196;BME280;53000;45.182;5.736;2022-10-16T07:27:45;99500.00;;;16.86;63.95
66196;BME280;53000;45.182;5.736;2022-10-16T07:30:10;99496.66;;;16.91;63.36
66196;BME280;53000;45.182;5.736;2022-10-16T07:32:43;99498.13;;;16.93;63.75
66196;BME280;53000;45.182;5.736;2022-10-16T07:35:11;99500.22;;;16.98;63.55
66196;BME280;53000;45.182;5.736;2022-10-16T07:37:38;99497.09;;;17.01;63.25
66196;BME280;53000;45.182;5.736;2022-10-16T07:40:09;99504.25;;;17.02;63.95
66196;BME280;53000;45.182;5.736;2022-10-16T07:42:37;99498.16;;;17.07;63.54
66196;BME280;53000;45.182;5.736;2022-10-16T07:45:05;99506.59;;;17.12;63.81
66196;BME280;53000;45.182;5.736;2022-10-16T07:47:33;99504.28;;;17.15;63.47
66196;BME280;53000;45.182;5.736;2022-10-16T07:49:58;99510.63;;;17.23;63.58
66196;BME280;53000;45.182;5.736;2022-10-16T07:52:24;99511.28;;;17.31;63.12
66196;BME280;53000;45.182;5.736;2022-10-16T07:54:49;99512.75;;;17.41;63.08
66196;BME280;53000;45.182;5.736;2022-10-16T07:57:22;99513.59;;;17.54;62.79
66196;BME280;53000;45.182;5.736;2022-10-16T07:59:49;99506.25;;;17.68;62.20
66196;BME280;53000;45.182;5.736;2022-10-16T08:02:14;99505.22;;;17.76;61.36
66196;BME280;53000;45.182;5.736;2022-10-16T08:04:40;99522.31;;;17.85;61.17
66196;BME280;53000;45.182;5.736;2022-10-16T08:07:07;99509.88;;;17.95;61.06
66196;BME280;53000;45.182;5.736;2022-10-16T08:09:36;99515.53;;;18.07;60.84
66196;BME280;53000;45.182;5.736;2022-10-16T08:12:07;99522.25;;;18.18;60.49
66196;BME280;53000;45.182;5.736;2022-10-16T08:14:38;99515.47;;;18.27;59.88
66196;BME280;53000;45.182;5.736;2022-10-16T08:17:13;99514.84;;;18.38;59.64
66196;BME280;53000;45.182;5.736;2022-10-16T08:19:39;99515.25;;;18.49;59.46
66196;BME280;53000;45.182;5.736;2022-10-16T08:22:04;99507.19;;;18.60;58.65
66196;BME280;53000;45.182;5.736;2022-10-16T08:24:29;99502.09;;;18.71;58.69
66196;BME280;53000;45.182;5.736;2022-10-16T08:26:56;99497.03;;;18.81;58.32
66196;BME280;53000;45.182;5.736;2022-10-16T08:29:26;99509.22;;;18.92;57.87
66196;BME280;53000;45.182;5.736;2022-10-16T08:31:52;99505.31;;;19.06;57.49
66196;BME280;53000;45.182;5.736;2022-10-16T08:34:17;99503.47;;;19.64;57.17
66196;BME280;53000;45.182;5.736;2022-10-16T08:36:42;99513.88;;;20.74;57.16
66196;BME280;53000;45.182;5.736;2022-10-16T08:39:08;99513.25;;;22.04;56.06
66196;BME280;53000;45.182;5.736;2022-10-16T08:49:19;99503.28;;;26.67;47.13
66196;BME280;53000;45.182;5.736;2022-10-16T08:51:45;99509.69;;;27.62;46.08
66196;BME280;53000;45.182;5.736;2022-10-16T08:56:40;99505.56;;;29.06;42.97
66196;BME280;53000;45.182;5.736;2022-10-16T08:59:10;99517.59;;;29.56;42.70
66196;BME280;53000;45.182;5.736;2022-10-16T09:01:45;99502.75;;;30.01;40.59
66196;BME280;53000;45.182;5.736;2022-10-16T09:07:05;99513.16;;;31.02;37.47
66196;BME280;53000;45.182;5.736;2022-10-16T09:12:23;99513.63;;;32.04;38.84
66196;BME280;53000;45.182;5.736;2022-10-16T09:15:21;99517.34;;;32.32;34.72
66196;BME280;53000;45.182;5.736;2022-10-16T09:21:01;99519.06;;;32.74;36.19
66196;BME280;53000;45.182;5.736;2022-10-16T09:23:34;99517.00;;;32.94;35.10
66196;BME280;53000;45.182;5.736;2022-10-16T09:26:03;99517.72;;;33.27;33.57
66196;BME280;53000;45.182;5.736;2022-10-16T09:28:30;99514.28;;;33.53;33.36
66196;BME280;53000;45.182;5.736;2022-10-16T09:30:55;99521.69;;;33.63;31.69
66196;BME280;53000;45.182;5.736;2022-10-16T09:33:25;99518.41;;;33.83;30.46
66196;BME280;53000;45.182;5.736;2022-10-16T09:36:02;99521.31;;;34.00;32.57
66196;BME280;53000;45.182;5.736;2022-10-16T09:38:30;99527.84;;;34.32;32.91
66196;BME280;53000;45.182;5.736;2022-10-16T09:40:58;99522.00;;;34.60;29.04
66196;BME280;53000;45.182;5.736;2022-10-16T09:46:04;99530.25;;;34.88;30.35
66196;BME280;53000;45.182;5.736;2022-10-16T09:48:36;99514.38;;;34.92;27.85
66196;BME280;53000;45.182;5.736;2022-10-16T09:51:06;99532.44;;;34.99;31.00
66196;BME280;53000;45.182;5.736;2022-10-16T09:53:45;99509.66;;;35.10;26.96
66196;BME280;53000;45.182;5.736;2022-10-16T09:56:21;99525.34;;;35.11;30.62
66196;BME280;53000;45.182;5.736;2022-10-16T09:59:11;99532.97;;;35.10;29.80
66196;BME280;53000;45.182;5.736;2022-10-16T10:01:44;99514.75;;;34.99;29.58
66196;BME280;53000;45.182;5.736;2022-10-16T10:04:11;99520.72;;;35.06;30.15
66196;BME280;53000;45.182;5.736;2022-10-16T10:06:43;99510.97;;;35.12;30.16
66196;BME280;53000;45.182;5.736;2022-10-16T10:14:44;99505.94;;;35.67;27.22
66196;BME280;53000;45.182;5.736;2022-10-16T10:17:25;99503.47;;;35.82;27.99
66196;BME280;53000;45.182;5.736;2022-10-16T10:20:01;99507.56;;;36.02;28.56
66196;BME280;53000;45.182;5.736;2022-10-16T10:30:58;99493.53;;;35.76;28.28
66196;BME280;53000;45.182;5.736;2022-10-16T10:36:37;99493.31;;;35.55;27.02
66196;BME280;53000;45.182;5.736;2022-10-16T10:39:36;99493.66;;;35.54;28.09
66196;BME280;53000;45.182;5.736;2022-10-16T10:42:36;99475.94;;;35.53;28.03
66196;BME280;53000;45.182;5.736;2022-10-16T10:45:22;99479.75;;;35.57;28.59
66196;BME280;53000;45.182;5.736;2022-10-16T10:48:06;99477.25;;;35.47;27.92
66196;BME280;53000;45.182;5.736;2022-10-16T10:50:58;99468.50;;;35.40;27.76
66196;BME280;53000;45.182;5.736;2022-10-16T10:56:18;99467.00;;;35.16;28.37
66196;BME280;53000;45.182;5.736;2022-10-16T10:59:00;99465.81;;;35.17;28.90
66196;BME280;53000;45.182;5.736;2022-10-16T11:06:57;99453.56;;;35.22;28.46
66196;BME280;53000;45.182;5.736;2022-10-16T11:09:47;99443.66;;;35.25;28.93
66196;BME280;53000;45.182;5.736;2022-10-16T11:12:32;99428.75;;;35.41;28.42
66196;BME280;53000;45.182;5.736;2022-10-16T11:15:21;99432.53;;;35.46;28.26
66196;BME280;53000;45.182;5.736;2022-10-16T11:18:06;99418.81;;;35.44;28.29
66196;BME280;53000;45.182;5.736;2022-10-16T11:20:45;99421.63;;;35.44;28.64
66196;BME280;53000;45.182;5.736;2022-10-16T11:23:22;99421.31;;;35.54;28.15
66196;BME280;53000;45.182;5.736;2022-10-16T11:25:48;99409.88;;;35.68;28.53
66196;BME280;53000;45.182;5.736;2022-10-16T11:28:29;99412.00;;;35.80;28.39
66196;BME280;53000;45.182;5.736;2022-10-16T11:34:06;99407.97;;;35.98;27.59
66196;BME280;53000;45.182;5.736;2022-10-16T11:41:59;99410.09;;;36.10;26.47
66196;BME280;53000;45.182;5.736;2022-10-16T11:44:36;99393.69;;;36.03;25.93
66196;BME280;53000;45.182;5.736;2022-10-16T11:49:59;99394.19;;;36.06;26.12
66196;BME280;53000;45.182;5.736;2022-10-16T11:55:18;99393.63;;;35.74;25.22
66196;BME280;53000;45.182;5.736;2022-10-16T11:57:58;99393.16;;;35.54;24.13
66196;BME280;53000;45.182;5.736;2022-10-16T12:00:44;99386.72;;;35.28;24.50
66196;BME280;53000;45.182;5.736;2022-10-16T12:08:38;99405.34;;;34.89;23.65
66196;BME280;53000;45.182;5.736;2022-10-16T12:11:32;99402.44;;;34.54;22.18
66196;BME280;53000;45.182;5.736;2022-10-16T12:16:37;99402.50;;;34.22;23.63
66196;BME280;53000;45.182;5.736;2022-10-16T12:19:15;99407.75;;;34.15;23.14
66196;BME280;53000;45.182;5.736;2022-10-16T12:21:41;99395.91;;;33.96;23.10
66196;BME280;53000;45.182;5.736;2022-10-16T12:24:21;99393.63;;;33.75;23.69
66196;BME280;53000;45.182;5.736;2022-10-16T12:26:48;99405.69;;;33.53;24.13
66196;BME280;53000;45.182;5.736;2022-10-16T12:29:27;99392.47;;;33.31;24.03
66196;BME280;53000;45.182;5.736;2022-10-16T12:31:54;99385.47;;;33.20;23.79
66196;BME280;53000;45.182;5.736;2022-10-16T12:34:29;99386.72;;;33.14;23.88
66196;BME280;53000;45.182;5.736;2022-10-16T12:37:13;99377.03;;;33.20;25.06
66196;BME280;53000;45.182;5.736;2022-10-16T12:39:44;99373.78;;;33.27;23.79
66196;BME280;53000;45.182;5.736;2022-10-16T12:42:43;99369.03;;;33.27;24.25
66196;BME280;53000;45.182;5.736;2022-10-16T12:45:33;99381.91;;;33.28;23.55
66196;BME280;53000;45.182;5.736;2022-10-16T12:48:01;99386.53;;;33.10;24.05
66196;BME280;53000;45.182;5.736;2022-10-16T12:50:31;99368.91;;;32.96;24.07
66196;BME280;53000;45.182;5.736;2022-10-16T12:53:01;99354.66;;;32.92;24.51
66196;BME280;53000;45.182;5.736;2022-10-16T12:55:34;99375.03;;;32.98;24.03
66196;BME280;53000;45.182;5.736;2022-10-16T13:00:57;99382.41;;;32.94;23.23
66196;BME280;53000;45.182;5.736;2022-10-16T13:06:38;99377.69;;;32.67;23.15
66196;BME280;53000;45.182;5.736;2022-10-16T13:20:33;99375.38;;;32.41;24.10
66196;BME280;53000;45.182;5.736;2022-10-16T13:22:54;99357.66;;;32.32;24.45
66196;BME280;53000;45.182;5.736;2022-10-16T13:25:35;99358.91;;;32.39;24.67
66196;BME280;53000;45.182;5.736;2022-10-16T13:28:06;99359.75;;;32.40;24.23
66196;BME280;53000;45.182;5.736;2022-10-16T13:30:53;99359.81;;;32.35;24.26
66196;BME280;53000;45.182;5.736;2022-10-16T13:33:42;99360.16;;;32.33;24.14
66196;BME280;53000;45.182;5.736;2022-10-16T13:36:26;99356.31;;;32.15;24.11
66196;BME280;53000;45.182;5.736;2022-10-16T13:39:13;99359.09;;;32.15;23.91
66196;BME280;53000;45.182;5.736;2022-10-16T13:41:40;99366.50;;;32.25;24.41
66196;BME280;53000;45.182;5.736;2022-10-16T13:44:13;99355.91;;;32.08;23.81
66196;BME280;53000;45.182;5.736;2022-10-16T13:46:44;99373.22;;;32.10;24.73
66196;BME280;53000;45.182;5.736;2022-10-16T13:49:16;99355.19;;;32.16;24.28
66196;BME280;53000;45.182;5.736;2022-10-16T13:51:54;99352.09;;;32.18;24.66
66196;BME280;53000;45.182;5.736;2022-10-16T13:54:19;99362.34;;;32.23;24.05
66196;BME280;53000;45.182;5.736;2022-10-16T13:56:47;99364.28;;;32.22;24.21
66196;BME280;53000;45.182;5.736;2022-10-16T13:59:32;99358.19;;;32.20;23.60
66196;BME280;53000;45.182;5.736;2022-10-16T14:01:58;99377.28;;;32.18;24.34
66196;BME280;53000;45.182;5.736;2022-10-16T14:04:32;99363.91;;;32.01;23.79
66196;BME280;53000;45.182;5.736;2022-10-16T14:06:58;99363.31;;;31.85;23.87
66196;BME280;53000;45.182;5.736;2022-10-16T14:09:29;99363.91;;;31.68;24.12
66196;BME280;53000;45.182;5.736;2022-10-16T14:12:07;99368.13;;;31.52;24.86
66196;BME280;53000;45.182;5.736;2022-10-16T14:14:45;99375.84;;;31.41;24.79
66196;BME280;53000;45.182;5.736;2022-10-16T14:17:35;99368.66;;;31.35;25.04
66196;BME280;53000;45.182;5.736;2022-10-16T14:20:04;99369.75;;;31.20;25.00
66196;BME280;53000;45.182;5.736;2022-10-16T14:22:36;99375.56;;;31.05;24.68
66196;BME280;53000;45.182;5.736;2022-10-16T14:25:23;99371.56;;;30.92;25.48
66196;BME280;53000;45.182;5.736;2022-10-16T14:30:30;99370.75;;;30.67;25.81
66196;BME280;53000;45.182;5.736;2022-10-16T14:33:03;99373.09;;;30.60;25.86
66196;BME280;53000;45.182;5.736;2022-10-16T14:35:36;99390.44;;;30.38;25.47
66196;BME280;53000;45.182;5.736;2022-10-16T14:38:04;99376.41;;;30.43;25.78
66196;BME280;53000;45.182;5.736;2022-10-16T14:40:35;99373.59;;;30.43;25.75
66196;BME280;53000;45.182;5.736;2022-10-16T14:43:04;99375.63;;;30.37;25.91
66196;BME280;53000;45.182;5.736;2022-10-16T14:45:33;99379.56;;;30.36;26.39
66196;BME280;53000;45.182;5.736;2022-10-16T14:48:06;99368.97;;;30.33;26.06
66196;BME280;53000;45.182;5.736;2022-10-16T14:50:39;99372.91;;;30.32;26.80
66196;BME280;53000;45.182;5.736;2022-10-16T14:53:13;99385.72;;;30.33;26.36
66196;BME280;53000;45.182;5.736;2022-10-16T14:55:41;99383.00;;;30.28;25.74
66196;BME280;53000;45.182;5.736;2022-10-16T14:58:18;99387.47;;;30.29;26.16
66196;BME280;53000;45.182;5.736;2022-10-16T15:00:44;99383.81;;;30.29;26.79
66196;BME280;53000;45.182;5.736;2022-10-16T15:03:12;99387.19;;;30.26;26.71